Time;durP1;ratioP1;P1;durP2;ratioP2;P2;SDS_P1;SDS_P2;PMS_P1;PMS_P2;Temp;Humidity;BMP_temperature;BMP_pressure;BME280_temperature;BME280_humidity;BME280_pressure;Samples;Min_cycle;Max_cycle;Signal;HPM_P1;HPM_P2
2023/10/27 00:00:50;;;;;;;;;3.00;3.00;;;;;-143.90;100.00;73952.63;4977737;28;101969;-77
2023/10/27 00:03:17;;;;;;;;;3.00;2.25;;;;;-143.90;100.00;73952.63;4989421;28;101784;-77
2023/10/27 00:05:43;;;;;;;;;2.50;1.50;;;;;-143.90;100.00;73958.84;4997255;27;101990;-77
2023/10/27 00:08:10;;;;;;;;;4.00;3.25;;;;;-143.90;100.00;73962.97;4994387;27;104638;-77
2023/10/27 00:10:37;;;;;;;;;4.00;4.00;;;;;-143.90;100.00;73969.19;4999276;27;101618;-77
2023/10/27 00:13:03;;;;;;;;;1.00;1.00;;;;;-143.90;100.00;73973.31;4971469;27;101801;-77
2023/10/27 00:15:30;;;;;;;;;2.75;2.75;;;;;-143.90;100.00;73973.31;4999377;27;101757;-77
2023/10/27 00:17:59;;;;;;;;;3.00;3.00;;;;;-143.90;100.00;73965.03;4978192;27;107761;-79
2023/10/27 00:20:26;;;;;;;;;2.75;2.75;;;;;-143.90;100.00;73965.03;4997778;28;101684;-79
2023/10/27 00:22:53;;;;;;;;;4.00;4.00;;;;;-143.90;100.00;73965.03;4996781;27;101871;-79
2023/10/27 00:25:20;;;;;;;;;5.25;5.25;;;;;-143.90;100.00;73956.78;4993172;28;101971;-78
2023/10/27 00:27:47;;;;;;;;;3.75;3.75;;;;;-143.90;100.00;73952.63;4993178;28;103337;-77
2023/10/27 00:30:13;;;;;;;;;4.75;4.00;;;;;-143.90;100.00;73956.78;4973781;27;102189;-77
2023/10/27 00:32:40;;;;;;;;;7.00;6.50;;;;;-143.90;100.00;73960.91;4995456;27;101596;-78
2023/10/27 00:35:07;;;;;;;;;4.50;4.00;;;;;-143.90;100.00;73952.63;4993235;27;101820;-77
2023/10/27 00:37:35;;;;;;;;;3.25;3.00;;;;;-143.90;100.00;73942.31;4977695;27;103348;-78
2023/10/27 00:40:02;;;;;;;;;7.00;5.00;;;;;-143.90;100.00;73942.31;4993276;28;101648;-77
2023/10/27 00:42:29;;;;;;;;;8.50;5.25;;;;;-143.90;100.00;73936.09;4978557;28;101944;-78
2023/10/27 00:44:56;;;;;;;;;4.25;4.25;;;;;-143.90;100.00;73940.25;4982843;28;101576;-77
2023/10/27 00:47:28;;;;;;;;;4.00;4.00;;;;;-143.90;100.00;73938.19;4995709;27;103436;-78
2023/10/27 00:49:56;;;;;;;;;3.75;3.75;;;;;-143.90;100.00;73940.25;4992839;28;101817;-77
2023/10/27 00:52:25;;;;;;;;;4.50;3.50;;;;;-143.90;100.00;73940.25;4990841;28;101594;-77
2023/10/27 00:54:53;;;;;;;;;10.50;9.00;;;;;-143.90;100.00;73944.38;5000336;27;101767;-78
2023/10/27 00:57:22;;;;;;;;;9.00;6.00;;;;;-143.90;100.00;73942.31;4996340;27;103380;-76
2023/10/27 00:59:52;;;;;;;;;8.75;7.25;;;;;-143.90;100.00;73938.19;4996169;27;101880;-76
2023/10/27 01:02:21;;;;;;;;;13.75;12.75;;;;;-143.90;100.00;73952.63;4985436;28;102040;-77
2023/10/27 01:04:49;;;;;;;;;15.00;14.00;;;;;-143.90;100.00;73965.03;4981136;28;101869;-77
2023/10/27 01:07:16;;;;;;;;;16.00;14.50;;;;;-143.90;100.00;73956.78;4993607;28;107298;-77
2023/10/27 01:09:43;;;;;;;;;19.25;17.50;;;;;-143.90;100.00;73965.03;4996166;27;101811;-76
2023/10/27 01:12:11;;;;;;;;;16.50;15.75;;;;;-143.90;100.00;73973.31;4992939;28;101490;-77
2023/10/27 01:14:38;;;;;;;;;16.25;15.00;;;;;-143.90;100.00;73969.19;4989348;27;101808;-78
2023/10/27 01:17:05;;;;;;;;;13.00;10.75;;;;;-143.90;100.00;73975.38;4990641;28;103609;-77
2023/10/27 01:19:31;;;;;;;;;13.50;8.50;;;;;-143.90;100.00;73969.19;4985967;27;101659;-77
2023/10/27 01:21:58;;;;;;;;;13.25;11.00;;;;;-143.90;100.00;73973.31;4993047;27;101692;-78
2023/10/27 01:24:25;;;;;;;;;20.50;18.75;;;;;-143.90;100.00;73989.84;4993270;27;101851;-78
2023/10/27 01:26:51;;;;;;;;;23.00;20.50;;;;;-143.90;100.00;74006.38;4974159;27;103505;-77
2023/10/27 01:29:20;;;;;;;;;19.75;16.25;;;;;-143.90;100.00;74010.50;4987220;27;101594;-78
2023/10/27 01:31:46;;;;;;;;;30.00;27.00;;;;;-143.90;100.00;74029.13;4992491;28;102869;-77
2023/10/27 01:34:13;;;;;;;;;26.50;21.50;;;;;-143.90;100.00;74035.31;4993292;28;101808;-77
2023/10/27 01:36:40;;;;;;;;;23.75;23.00;;;;;-143.90;100.00;74047.72;4991887;27;103308;-78
2023/10/27 01:39:07;;;;;;;;;21.50;19.00;;;;;-143.90;100.00;74043.59;4970448;28;102532;-77
2023/10/27 01:41:34;;;;;;;;;23.25;20.00;;;;;-143.90;100.00;74047.72;4987592;28;101680;-77
2023/10/27 01:44:00;;;;;;;;;18.25;16.50;;;;;-143.90;100.00;74047.72;4979051;28;102198;-76
2023/10/27 01:46:27;;;;;;;;;17.50;16.75;;;;;-143.90;100.00;74047.72;4998479;27;103352;-78
2023/10/27 01:48:54;;;;;;;;;13.25;12.75;;;;;-143.90;100.00;74039.44;4976100;27;101807;-76
2023/10/27 01:51:21;;;;;;;;;12.00;8.75;;;;;-143.90;100.00;74049.78;4991686;27;102777;-78
2023/10/27 01:53:48;;;;;;;;;12.25;9.50;;;;;-143.90;100.00;74072.50;4998501;28;101651;-77
2023/10/27 01:56:15;;;;;;;;;7.00;7.00;;;;;-143.90;100.00;74070.44;4999395;27;103832;-77
2023/10/27 01:58:44;;;;;;;;;12.50;9.00;;;;;-143.90;100.00;74091.13;4998823;27;102535;-78
2023/10/27 02:01:14;;;;;;;;;19.00;16.50;;;;;-143.90;100.00;74109.72;4997643;27;101804;-77
2023/10/27 02:03:41;;;;;;;;;20.00;18.25;;;;;-143.90;100.00;74115.91;4992000;28;101886;-78
2023/10/27 02:06:08;;;;;;;;;17.25;16.00;;;;;-143.90;100.00;74118.00;4999676;28;103389;-77
2023/10/27 02:08:35;;;;;;;;;17.75;14.50;;;;;-143.90;100.00;74111.78;4996900;28;101859;-78
2023/10/27 02:11:03;;;;;;;;;20.25;18.25;;;;;-143.90;100.00;74120.06;4997651;28;101494;-77
2023/10/27 02:13:30;;;;;;;;;14.00;12.50;;;;;-143.90;100.00;74111.78;4996330;28;101632;-76
2023/10/27 02:15:57;;;;;;;;;13.00;12.00;;;;;-143.90;100.00;74105.59;4976561;28;108160;-78
2023/10/27 02:18:23;;;;;;;;;9.75;9.75;;;;;-143.90;100.00;74111.78;4999414;27;101732;-76
2023/10/27 02:20:50;;;;;;;;;6.25;5.50;;;;;-143.90;100.00;74111.78;4992652;27;102045;-77
2023/10/27 02:23:17;;;;;;;;;18.25;15.00;;;;;-143.90;100.00;74120.06;4994103;28;101873;-77
2023/10/27 02:25:44;;;;;;;;;12.75;10.00;;;;;-143.90;100.00;74115.91;4987217;28;103274;-77
2023/10/27 02:28:11;;;;;;;;;9.25;8.25;;;;;-143.90;100.00;74124.19;4991449;28;101764;-76
2023/10/27 02:30:37;;;;;;;;;18.75;16.50;;;;;-143.90;100.00;74138.66;4989558;28;101574;-77
2023/10/27 02:33:04;;;;;;;;;20.50;18.25;;;;;-143.90;100.00;74138.66;4990999;27;101783;-77
2023/10/27 02:35:31;;;;;;;;;10.25;10.25;;;;;-143.90;100.00;74138.66;4987791;27;103384;-77
2023/10/27 02:37:58;;;;;;;;;13.25;8.25;;;;;-143.90;100.00;74130.38;4995374;28;101525;-78
2023/10/27 02:40:25;;;;;;;;;6.25;6.25;;;;;-143.90;100.00;74128.31;4992668;27;101559;-77
2023/10/27 02:42:51;;;;;;;;;16.00;12.75;;;;;-143.90;100.00;74151.06;4984166;27;102537;-77
2023/10/27 02:45:19;;;;;;;;;19.00;15.75;;;;;-143.90;100.00;74161.38;4992670;28;103874;-76
2023/10/27 02:47:45;;;;;;;;;13.50;12.25;;;;;-143.90;100.00;74155.19;4995219;28;101988;-78
2023/10/27 02:50:13;;;;;;;;;13.75;11.50;;;;;-143.90;100.00;74161.38;4993981;27;101740;-77
2023/10/27 02:52:39;;;;;;;;;13.75;13.50;;;;;-143.90;100.00;74163.47;4995476;27;101840;-76
2023/10/27 02:55:06;;;;;;;;;13.00;12.50;;;;;-143.90;100.00;74165.53;4999402;27;103358;-77
2023/10/27 02:57:33;;;;;;;;;9.50;8.00;;;;;-143.90;100.00;74163.47;4996692;28;101737;-77
2023/10/27 02:59:59;;;;;;;;;13.25;13.00;;;;;-143.90;100.00;74161.38;4978188;28;102297;-78
2023/10/27 03:02:27;;;;;;;;;9.00;7.00;;;;;-143.90;100.00;74163.47;4993055;28;101717;-78
2023/10/27 03:04:57;;;;;;;;;13.00;12.50;;;;;-143.90;100.00;74165.53;5001676;28;102837;-77
2023/10/27 03:07:24;;;;;;;;;12.00;11.75;;;;;-143.90;100.00;74163.47;4982094;28;101667;-77
2023/10/27 03:09:50;;;;;;;;;23.00;21.25;;;;;-143.90;100.00;74161.38;4997035;27;102088;-77
2023/10/27 03:12:19;;;;;;;;;23.75;20.75;;;;;-143.90;100.00;74163.47;4997766;27;101575;-77
2023/10/27 03:14:45;;;;;;;;;20.75;18.00;;;;;-143.90;100.00;74161.38;4996324;27;103689;-78
2023/10/27 03:17:12;;;;;;;;;25.75;19.75;;;;;-143.90;100.00;74157.25;5000351;27;101843;-77
2023/10/27 03:19:39;;;;;;;;;21.00;18.75;;;;;-143.90;100.00;74157.25;4995672;27;101844;-78
2023/10/27 03:22:05;;;;;;;;;15.75;11.75;;;;;-143.90;100.00;74151.06;4997394;28;101919;-76
2023/10/27 03:24:32;;;;;;;;;21.75;18.00;;;;;-143.90;100.00;74157.25;4995228;27;103057;-76
2023/10/27 03:26:59;;;;;;;;;22.00;20.25;;;;;-143.90;100.00;74171.72;4996177;27;101919;-77
2023/10/27 03:29:25;;;;;;;;;24.50;21.25;;;;;-143.90;100.00;74169.66;4994887;27;103272;-76
2023/10/27 03:31:52;;;;;;;;;38.00;33.75;;;;;-143.90;100.00;74163.47;4993388;28;101966;-76
2023/10/27 03:34:19;;;;;;;;;40.50;34.00;;;;;-143.90;100.00;74167.59;4993272;27;103519;-77
2023/10/27 03:36:45;;;;;;;;;40.00;32.50;;;;;-143.90;100.00;74167.59;4993306;28;101499;-77
2023/10/27 03:39:12;;;;;;;;;33.25;30.75;;;;;-143.90;100.00;74163.47;4986996;28;102097;-76
2023/10/27 03:41:39;;;;;;;;;27.25;23.25;;;;;-143.90;100.00;74165.53;4995791;27;101855;-77
2023/10/27 03:44:06;;;;;;;;;24.25;21.25;;;;;-143.90;100.00;74151.06;4995533;27;103675;-77
2023/10/27 03:46:33;;;;;;;;;20.50;17.00;;;;;-143.90;100.00;74142.78;4977964;28;101539;-77
2023/10/27 03:49:00;;;;;;;;;23.25;21.75;;;;;-143.90;100.00;74144.84;4990023;28;102610;-77
2023/10/27 03:51:27;;;;;;;;;23.00;20.25;;;;;-143.90;100.00;74142.78;4988651;28;101794;-79
2023/10/27 03:53:54;;;;;;;;;12.75;12.25;;;;;-143.90;100.00;74144.84;4999003;28;103388;-78
2023/10/27 03:56:21;;;;;;;;;13.00;11.50;;;;;-143.90;100.00;74142.78;4990730;28;102050;-78
2023/10/27 03:58:48;;;;;;;;;14.00;12.00;;;;;-143.90;100.00;74146.91;4995249;28;101716;-78
2023/10/27 04:01:15;;;;;;;;;12.50;11.00;;;;;-143.90;100.00;74142.78;4994281;28;102404;-76
2023/10/27 04:03:42;;;;;;;;;7.75;7.25;;;;;-143.90;100.00;74134.53;4989972;28;103055;-77
2023/10/27 04:06:10;;;;;;;;;13.25;10.75;;;;;-143.90;100.00;74132.44;4995113;28;101446;-78
2023/10/27 04:08:36;;;;;;;;;12.25;9.00;;;;;-143.90;100.00;74128.31;4965581;28;101536;-77
2023/10/27 04:11:03;;;;;;;;;25.00;19.00;;;;;-143.90;100.00;74122.13;4994326;27;102050;-76
2023/10/27 04:13:30;;;;;;;;;18.50;16.25;;;;;-143.90;100.00;74109.72;4994691;27;103374;-78
2023/10/27 04:15:57;;;;;;;;;13.25;12.00;;;;;-143.90;100.00;74093.19;4987952;27;103032;-78
2023/10/27 04:18:23;;;;;;;;;12.25;8.75;;;;;-143.90;100.00;74086.97;4990173;27;103038;-77
2023/10/27 04:20:50;;;;;;;;;14.75;13.50;;;;;-143.90;100.00;74080.78;4994072;27;101752;-79
2023/10/27 04:23:17;;;;;;;;;11.25;10.00;;;;;-143.90;100.00;74076.66;4988774;27;102314;-76
2023/10/27 04:25:43;;;;;;;;;9.75;8.00;;;;;-143.90;100.00;74076.66;4989240;28;101928;-78
2023/10/27 04:28:10;;;;;;;;;14.25;12.00;;;;;-143.90;100.00;74074.59;4992316;28;102199;-76
2023/10/27 04:30:37;;;;;;;;;11.50;10.00;;;;;-143.90;100.00;74064.25;4989797;28;101804;-77
2023/10/27 04:33:05;;;;;;;;;19.50;17.25;;;;;-143.90;100.00;74062.19;4989967;28;102874;-76
2023/10/27 04:35:33;;;;;;;;;27.00;25.00;;;;;-143.90;100.00;74064.25;4992427;28;101932;-77
2023/10/27 04:37:59;;;;;;;;;17.00;16.00;;;;;-143.90;100.00;74055.97;4983676;28;103292;-76
2023/10/27 04:40:28;;;;;;;;;13.50;12.25;;;;;-143.90;100.00;74043.59;4980801;28;102171;-77
2023/10/27 04:42:58;;;;;;;;;12.00;11.00;;;;;-143.90;100.00;74031.19;4986270;28;104211;-77
2023/10/27 04:45:25;;;;;;;;;11.25;11.25;;;;;-143.90;100.00;74022.91;4989249;28;102451;-77
2023/10/27 04:47:52;;;;;;;;;10.00;9.25;;;;;-143.90;100.00;74022.91;4981003;28;102781;-76
2023/10/27 04:50:19;;;;;;;;;13.25;9.75;;;;;-143.90;100.00;74022.91;4963409;28;101927;-76
2023/10/27 04:52:46;;;;;;;;;13.50;12.25;;;;;-143.90;100.00;74020.84;4967227;28;104263;-75
2023/10/27 04:55:13;;;;;;;;;19.50;18.75;;;;;-143.90;100.00;74020.84;4971751;28;102206;-77
2023/10/27 04:57:39;;;;;;;;;18.75;16.00;;;;;-143.90;100.00;74010.50;4966020;28;102240;-76
2023/10/27 05:00:09;;;;;;;;;17.25;15.00;;;;;-143.90;100.00;74006.38;4964724;28;102222;-76
2023/10/27 05:02:36;;;;;;;;;14.50;14.50;;;;;-143.90;100.00;73993.97;4958706;28;104023;-76
2023/10/27 05:05:03;;;;;;;;;12.25;10.00;;;;;-143.90;100.00;73989.84;4970157;28;102451;-76
2023/10/27 05:07:30;;;;;;;;;6.00;6.00;;;;;-143.90;100.00;73989.84;4968905;28;102400;-76
2023/10/27 05:09:56;;;;;;;;;16.25;13.75;;;;;-143.90;100.00;73991.91;4968249;28;102317;-76
2023/10/27 05:12:23;;;;;;;;;10.50;8.50;;;;;-143.90;100.00;73991.91;4965079;28;104516;-77
2023/10/27 05:14:50;;;;;;;;;9.25;8.25;;;;;-143.90;100.00;73987.78;4962401;28;101901;-77
2023/10/27 05:17:17;;;;;;;;;10.25;9.25;;;;;-143.90;100.00;73983.66;4968910;28;102330;-77
2023/10/27 05:19:44;;;;;;;;;19.25;14.25;;;;;-143.90;100.00;73989.84;4970075;28;101977;-76
2023/10/27 05:22:13;;;;;;;;;18.75;14.75;;;;;-143.90;100.00;73981.56;4967519;28;104020;-76
2023/10/27 05:24:40;;;;;;;;;12.00;11.00;;;;;-143.90;100.00;73975.38;4965642;28;102234;-76
2023/10/27 05:27:07;;;;;;;;;13.25;13.00;;;;;-143.90;100.00;73969.19;4956555;28;103060;-77
2023/10/27 05:29:34;;;;;;;;;13.25;11.50;;;;;-143.90;100.00;73975.38;4966090;28;102116;-77
2023/10/27 05:32:01;;;;;;;;;9.25;8.75;;;;;-143.90;100.00;73973.31;4968778;28;105384;-76
2023/10/27 05:34:27;;;;;;;;;3.25;3.25;;;;;-143.90;100.00;73969.19;4965417;28;102259;-77
2023/10/27 05:36:57;;;;;;;;;23.50;20.75;;;;;-143.90;100.00;73983.66;4963630;28;102238;-77
2023/10/27 05:39:26;;;;;;;;;25.00;23.50;;;;;-143.90;100.00;73977.44;4955448;28;103387;-77
2023/10/27 05:41:53;;;;;;;;;21.75;21.00;;;;;-143.90;100.00;73977.44;4966640;28;104060;-77
2023/10/27 05:44:20;;;;;;;;;26.75;20.75;;;;;-143.90;100.00;73989.84;4962815;28;101941;-77
2023/10/27 05:46:47;;;;;;;;;33.50;31.00;;;;;-143.90;100.00;73989.84;4965781;28;102514;-77
2023/10/27 05:49:14;;;;;;;;;18.00;16.50;;;;;-143.90;100.00;73993.97;4980201;28;102185;-76
2023/10/27 05:51:41;;;;;;;;;33.25;28.75;;;;;-143.90;100.00;73991.91;4976945;28;104148;-77
2023/10/27 05:54:07;;;;;;;;;34.00;28.75;;;;;-143.90;100.00;73985.72;4977801;28;102039;-76
2023/10/27 05:56:34;;;;;;;;;27.75;24.50;;;;;-143.90;100.00;73977.44;4989548;28;101760;-76
2023/10/27 05:59:00;;;;;;;;;22.25;20.75;;;;;-143.90;100.00;73962.97;4970212;28;102323;-76
2023/10/27 06:01:27;;;;;;;;;18.75;18.00;;;;;-143.90;100.00;73956.78;4974336;28;108988;-77
2023/10/27 06:03:57;;;;;;;;;18.00;15.50;;;;;-143.90;100.00;73948.50;4979627;28;102360;-78
2023/10/27 06:06:25;;;;;;;;;24.25;20.50;;;;;-143.90;100.00;73946.44;4988253;28;101923;-77
2023/10/27 06:08:52;;;;;;;;;16.75;15.00;;;;;-143.90;100.00;73948.50;4990552;28;102206;-77
2023/10/27 06:11:19;;;;;;;;;16.75;13.00;;;;;-143.90;100.00;73948.50;4979313;27;104219;-78
2023/10/27 06:13:46;;;;;;;;;18.75;14.75;;;;;-143.90;100.00;73946.44;4982909;28;102103;-76
2023/10/27 06:16:12;;;;;;;;;19.25;18.50;;;;;-143.90;100.00;73944.38;4980989;28;102314;-78
2023/10/27 06:18:39;;;;;;;;;19.25;17.00;;;;;-143.90;100.00;73934.03;4989513;28;102157;-76
2023/10/27 06:21:06;;;;;;;;;12.50;12.00;;;;;-143.90;100.00;73925.78;4980924;28;104305;-75
2023/10/27 06:23:33;;;;;;;;;10.00;7.25;;;;;-143.90;100.00;73915.44;4978355;28;102328;-76
2023/10/27 06:26:00;;;;;;;;;13.50;12.75;;;;;-143.90;100.00;73913.38;4982347;28;102906;-77
2023/10/27 06:28:26;;;;;;;;;13.50;11.50;;;;;-143.90;100.00;73900.97;4978120;28;103235;-76
2023/10/27 06:30:53;;;;;;;;;6.25;6.25;;;;;-143.90;100.00;73896.84;4977937;28;104067;-77
2023/10/27 06:33:20;;;;;;;;;15.25;12.75;;;;;-143.90;100.00;73900.97;4982693;28;101954;-76
2023/10/27 06:35:47;;;;;;;;;14.75;12.25;;;;;-143.90;100.00;73894.78;4979352;28;102064;-76
2023/10/27 06:38:14;;;;;;;;;16.00;13.75;;;;;-143.90;100.00;73890.63;4980476;28;103483;-77
2023/10/27 06:40:40;;;;;;;;;14.50;12.50;;;;;-143.90;100.00;73894.78;4988889;28;104095;-76
2023/10/27 06:43:07;;;;;;;;;13.00;10.00;;;;;-143.90;100.00;73882.38;4990228;28;102319;-77
2023/10/27 06:45:34;;;;;;;;;23.75;21.50;;;;;-143.90;100.00;73888.56;4984090;28;102279;-76
2023/10/27 06:48:00;;;;;;;;;32.25;30.50;;;;;-143.90;100.00;73898.91;4981765;28;101974;-76
2023/10/27 06:50:27;;;;;;;;;32.25;29.75;;;;;-143.90;100.00;73892.69;4972602;28;108703;-76
2023/10/27 06:52:54;;;;;;;;;25.00;21.00;;;;;-143.90;100.00;73880.31;4966227;28;102300;-76
2023/10/27 06:55:21;;;;;;;;;19.25;18.25;;;;;-143.90;100.00;73865.84;4984168;28;102204;-77
2023/10/27 06:57:48;;;;;;;;;15.25;14.00;;;;;-143.90;100.00;73861.69;4983297;28;102198;-76
2023/10/27 07:00:15;;;;;;;;;21.00;19.25;;;;;-143.90;100.00;73859.63;4979238;28;104178;-77
2023/10/27 07:02:42;;;;;;;;;23.75;19.50;;;;;-143.90;100.00;73845.16;4979196;28;102100;-77
2023/10/27 07:05:23;;;;;;;;;13.75;10.50;;;;;-143.90;100.00;73841.03;4978019;28;102441;-77
2023/10/27 07:07:52;;;;;;;;;13.50;10.75;;;;;-143.90;100.00;73826.56;4984237;28;101949;-77
2023/10/27 07:10:18;;;;;;;;;8.00;6.75;;;;;-143.90;100.00;73818.31;4982506;28;104396;-76
2023/10/27 07:12:45;;;;;;;;;9.25;8.50;;;;;-143.90;100.00;73812.09;4979243;28;102371;-77
2023/10/27 07:15:13;;;;;;;;;20.50;19.50;;;;;-143.90;100.00;73824.50;4958387;28;101967;-77
2023/10/27 07:17:41;;;;;;;;;36.00;34.00;;;;;-143.90;100.00;73834.84;4984362;28;102265;-77
2023/10/27 07:20:08;;;;;;;;;27.50;22.25;;;;;-143.90;100.00;73824.50;4982539;28;104174;-77
2023/10/27 07:22:36;;;;;;;;;27.00;25.75;;;;;-143.90;100.00;73832.78;4980453;28;102002;-77
2023/10/27 07:25:03;;;;;;;;;26.50;25.50;;;;;-143.90;100.00;73824.50;4979310;28;102103;-75
2023/10/27 07:27:30;;;;;;;;;43.25;37.00;;;;;-143.90;100.00;73824.50;4978348;28;102060;-77
2023/10/27 07:29:57;;;;;;;;;39.50;34.25;;;;;-143.90;100.00;73820.38;4969639;28;109195;-77
2023/10/27 07:32:23;;;;;;;;;29.00;26.00;;;;;-143.90;100.00;73801.78;4985748;28;102055;-77
2023/10/27 07:34:50;;;;;;;;;33.75;33.00;;;;;-143.90;100.00;73803.84;4980207;28;102278;-77
2023/10/27 07:37:19;;;;;;;;;36.75;29.50;;;;;-143.90;100.00;73787.31;4981477;28;102429;-76
2023/10/27 07:39:46;;;;;;;;;25.75;22.50;;;;;-143.90;100.00;73779.03;4968953;28;105244;-77
2023/10/27 07:42:13;;;;;;;;;37.25;30.50;;;;;-143.90;100.00;73779.03;4979663;28;102039;-75
2023/10/27 07:44:40;;;;;;;;;25.00;22.50;;;;;-143.90;100.00;73766.63;4985628;27;101971;-77
2023/10/27 07:47:07;;;;;;;;;29.00;22.00;;;;;-143.90;100.00;73756.31;4972176;28;102510;-77
2023/10/27 07:49:34;;;;;;;;;16.75;15.00;;;;;-143.90;100.00;73739.78;4977844;28;105251;-76
2023/10/27 07:52:03;;;;;;;;;26.75;17.25;;;;;-143.90;100.00;73727.38;4994572;27;101719;-75
2023/10/27 07:54:31;;;;;;;;;19.75;18.50;;;;;-143.90;100.00;73721.16;4981027;28;102188;-77
2023/10/27 07:56:59;;;;;;;;;21.75;19.00;;;;;-143.90;100.00;73717.03;4998223;27;102046;-76
2023/10/27 07:59:29;;;;;;;;;25.75;22.25;;;;;-143.90;100.00;73712.91;4995725;28;103788;-77
2023/10/27 08:01:57;;;;;;;;;16.75;14.75;;;;;-143.90;100.00;73698.44;4975519;28;101622;-77
2023/10/27 08:04:26;;;;;;;;;35.75;30.50;;;;;-143.90;100.00;73704.63;4997703;27;104089;-78
2023/10/27 08:06:53;;;;;;;;;24.75;20.50;;;;;-143.90;100.00;73692.25;5006551;27;102022;-76
2023/10/27 08:09:20;;;;;;;;;28.00;24.75;;;;;-143.90;100.00;73671.56;4982793;28;103533;-76
2023/10/27 08:11:50;;;;;;;;;24.50;17.50;;;;;-143.90;100.00;73650.91;4993293;27;101714;-77
2023/10/27 08:14:17;;;;;;;;;17.50;16.00;;;;;-143.90;100.00;73640.56;4980788;27;102003;-76
2023/10/27 08:16:45;;;;;;;;;13.25;11.50;;;;;-143.90;100.00;73624.03;5006108;28;102508;-76
2023/10/27 08:19:12;;;;;;;;;12.25;12.25;;;;;-143.90;100.00;73611.63;4977597;28;103619;-76
2023/10/27 08:21:40;;;;;;;;;10.75;8.00;;;;;-143.90;100.00;73603.38;4988462;27;101822;-76
2023/10/27 08:24:09;;;;;;;;;11.50;10.25;;;;;-143.90;100.00;73599.25;4986359;28;101708;-76
2023/10/27 08:26:35;;;;;;;;;16.75;15.75;;;;;-143.90;100.00;73597.16;4996077;27;102615;-74
2023/10/27 08:29:02;;;;;;;;;17.75;16.25;;;;;-143.90;100.00;73586.84;4990983;27;104634;-75
2023/10/27 08:31:29;;;;;;;;;11.25;9.75;;;;;-143.90;100.00;73580.63;4983090;27;102074;-76
2023/10/27 08:33:59;;;;;;;;;13.00;11.25;;;;;-143.90;100.00;73578.56;4980920;27;101542;-76
2023/10/27 08:36:27;;;;;;;;;23.50;21.00;;;;;-143.90;100.00;73580.63;4993438;27;101782;-76
2023/10/27 08:38:54;;;;;;;;;16.25;15.75;;;;;-143.90;100.00;73568.25;4992455;28;103670;-75
2023/10/27 08:41:28;;;;;;;;;8.00;8.00;;;;;-143.90;100.00;73562.03;4979371;28;101578;-76
2023/10/27 08:43:55;;;;;;;;;13.75;13.75;;;;;-143.90;100.00;73551.72;5001534;27;101674;-75
2023/10/27 08:46:24;;;;;;;;;14.00;10.00;;;;;-143.90;100.00;73543.44;4995943;27;101941;-75
2023/10/27 08:48:51;;;;;;;;;11.00;10.00;;;;;-143.90;100.00;73531.03;4991707;27;103445;-76
2023/10/27 08:51:18;;;;;;;;;10.00;8.00;;;;;-143.90;100.00;73531.03;4992929;27;101515;-76
2023/10/27 08:53:45;;;;;;;;;10.75;9.00;;;;;-143.90;100.00;73522.78;5001895;27;101580;-76
2023/10/27 08:56:13;;;;;;;;;24.00;22.00;;;;;-143.90;100.00;73539.31;4980226;27;102724;-75
2023/10/27 08:58:47;;;;;;;;;26.00;21.50;;;;;-143.90;100.00;73543.44;4994363;27;103397;-77
2023/10/27 09:01:14;;;;;;;;;31.00;29.25;;;;;-143.90;100.00;73547.56;4988427;28;101630;-76
2023/10/27 09:03:41;;;;;;;;;30.25;25.75;;;;;-143.90;100.00;73551.72;4997477;27;101883;-77
2023/10/27 09:06:07;;;;;;;;;23.25;17.75;;;;;-143.90;100.00;73533.09;4998921;27;101817;-75
2023/10/27 09:08:34;;;;;;;;;19.50;18.00;;;;;-143.90;100.00;73528.97;4983202;27;103370;-76
2023/10/27 09:11:01;;;;;;;;;19.75;15.75;;;;;-143.90;100.00;73522.78;4999977;27;101804;-76
2023/10/27 09:13:27;;;;;;;;;17.75;14.50;;;;;-143.90;100.00;73508.31;4993003;27;101601;-76
2023/10/27 09:15:54;;;;;;;;;14.75;13.75;;;;;-143.90;100.00;73502.09;4993824;27;102547;-76
2023/10/27 09:18:36;;;;;;;;;11.25;10.75;;;;;-143.90;100.00;73477.31;4970431;28;102917;-76
2023/10/27 09:21:03;;;;;;;;;13.50;11.00;;;;;-143.90;100.00;73469.03;4990755;27;101739;-75
2023/10/27 09:23:44;;;;;;;;;8.00;7.50;;;;;-143.90;100.00;73452.50;4998417;27;102027;-76
2023/10/27 09:26:10;;;;;;;;;8.50;6.75;;;;;-143.90;100.00;73460.78;4990349;27;101650;-76
2023/10/27 09:28:37;;;;;;;;;10.75;8.25;;;;;-143.90;100.00;73448.38;4985466;28;104860;-74
2023/10/27 09:31:04;;;;;;;;;10.00;10.00;;;;;-143.90;100.00;73446.31;4975271;28;101914;-74
2023/10/27 09:33:31;;;;;;;;;10.25;8.00;;;;;-143.90;100.00;73431.84;5002411;27;101743;-76
2023/10/27 09:36:02;;;;;;;;;11.25;10.75;;;;;-143.90;100.00;73429.78;4978572;27;101570;-75
2023/10/27 09:38:29;;;;;;;;;19.00;16.75;;;;;-143.90;100.00;73425.66;4993878;28;108311;-76
2023/10/27 09:41:00;;;;;;;;;15.25;9.75;;;;;-143.90;100.00;73427.72;4960528;27;101788;-76
2023/10/27 09:43:32;;;;;;;;;23.25;17.50;;;;;-143.90;100.00;73423.59;4982390;28;101972;-76
2023/10/27 09:46:02;;;;;;;;;17.25;17.00;;;;;-143.90;100.00;73419.44;4979450;28;101579;-77
2023/10/27 09:48:30;;;;;;;;;16.50;15.25;;;;;-143.90;100.00;73409.13;4995939;27;107723;-75
2023/10/27 09:51:01;;;;;;;;;15.75;14.25;;;;;-143.90;100.00;73402.91;4991011;28;101557;-75
2023/10/27 09:53:28;;;;;;;;;15.75;15.25;;;;;-143.90;100.00;73402.91;5001348;27;103107;-76
2023/10/27 09:55:58;;;;;;;;;14.75;13.25;;;;;-143.90;100.00;73396.72;5000760;27;101664;-75
2023/10/27 09:58:30;;;;;;;;;14.50;11.00;;;;;-143.90;100.00;73386.38;4997229;27;104047;-76
2023/10/27 10:00:59;;;;;;;;;16.00;14.00;;;;;-143.90;100.00;73378.13;4992464;27;101947;-75
2023/10/27 10:03:28;;;;;;;;;16.50;14.00;;;;;-143.90;100.00;73371.91;4996036;27;101839;-75
2023/10/27 10:06:29;;;;;;;;;18.25;13.00;;;;;-143.90;100.00;73367.78;5004066;27;102544;-76
2023/10/27 10:09:14;;;;;;;;;13.50;13.00;;;;;-143.90;100.00;73355.38;4989105;28;107757;-76
2023/10/27 10:11:47;;;;;;;;;15.00;13.25;;;;;-143.90;100.00;73351.25;4993976;27;101659;-75
2023/10/27 10:14:39;;;;;;;;;13.00;11.50;;;;;-143.90;100.00;73343.00;4992741;27;101702;-75
2023/10/27 10:17:06;;;;;;;;;10.00;9.00;;;;;-143.90;100.00;73336.78;5001593;27;102191;-75
2023/10/27 10:19:55;;;;;;;;;12.25;10.00;;;;;-143.90;100.00;73332.66;5001790;27;103464;-75
2023/10/27 10:22:39;;;;;;;;;10.25;9.25;;;;;-143.90;100.00;73330.59;4998495;28;101459;-75
2023/10/27 10:25:18;;;;;;;;;9.00;7.75;;;;;-143.90;100.00;73320.25;4974193;27;101897;-74
2023/10/27 10:28:08;;;;;;;;;16.25;13.00;;;;;-143.90;100.00;73312.00;4998716;27;101622;-74
2023/10/27 10:30:38;;;;;;;;;11.50;10.00;;;;;-143.90;100.00;73303.72;4981350;27;108015;-76
2023/10/27 10:33:16;;;;;;;;;11.50;8.75;;;;;-143.90;100.00;73295.47;5000243;27;102035;-74
2023/10/27 10:35:44;;;;;;;;;8.25;6.00;;;;;-143.90;100.00;73289.25;4994182;27;101712;-73
2023/10/27 10:38:49;;;;;;;;;3.75;3.75;;;;;-143.90;100.00;73270.66;4994624;27;101767;-75
2023/10/27 10:41:18;;;;;;;;;9.00;9.00;;;;;-143.90;100.00;73266.53;4996031;27;107625;-74
2023/10/27 10:44:13;;;;;;;;;5.75;5.25;;;;;-143.90;100.00;73254.13;5000523;27;101600;-75
2023/10/27 10:46:41;;;;;;;;;10.00;8.00;;;;;-143.90;100.00;73250.00;4975534;27;101936;-75
2023/10/27 10:49:09;;;;;;;;;10.25;10.25;;;;;-143.90;100.00;73241.75;4995760;27;101956;-75
2023/10/27 10:51:37;;;;;;;;;10.50;10.00;;;;;-143.90;100.00;73237.59;4994441;27;103728;-74
2023/10/27 10:54:12;;;;;;;;;11.00;7.00;;;;;-143.90;100.00;73225.19;4998796;28;101500;-73